Time;durP1;ratioP1;P1;durP2;ratioP2;P2;SDS_P1;SDS_P2;PMS_P1;PMS_P2;Temp;Humidity;BMP_temperature;BMP_pressure;BME280_temperature;BME280_humidity;BME280_pressure;Samples;Min_cycle;Max_cycle;Signal;HPM_P1;HPM_P2
2021/06/20 00:00:15;;;;;;;12.80;11.80;;;26.20;99.90;;;;;;4971955;28;20427;-68
2021/06/20 00:02:42;;;;;;;13.20;12.20;;;26.20;99.90;;;;;;4973416;28;20426;-68
2021/06/20 00:05:11;;;;;;;14.00;12.57;;;26.20;99.90;;;;;;4989476;28;20439;-68
2021/06/20 00:07:38;;;;;;;11.40;10.50;;;26.10;99.90;;;;;;4992780;28;20450;-68
2021/06/20 00:10:05;;;;;;;16.30;12.53;;;26.10;99.90;;;;;;4992474;28;20423;-68
2021/06/20 00:12:31;;;;;;;14.23;12.43;;;26.10;99.90;;;;;;4991740;28;20813;-68
2021/06/20 00:14:57;;;;;;;13.43;12.10;;;26.00;99.90;;;;;;4992706;28;20525;-68
2021/06/20 00:17:22;;;;;;;12.40;11.20;;;26.10;99.90;;;;;;4992816;28;20171;-68
2021/06/20 00:19:48;;;;;;;12.47;11.50;;;26.10;99.90;;;;;;4992356;28;20782;-68
2021/06/20 00:22:13;;;;;;;11.87;10.83;;;26.10;99.90;;;;;;4992624;28;20175;-68
2021/06/20 00:24:39;;;;;;;13.27;12.17;;;26.00;99.90;;;;;;4992297;28;20748;-68
2021/06/20 00:27:05;;;;;;;12.40;11.43;;;26.00;99.90;;;;;;4992482;28;20171;-68
2021/06/20 00:29:30;;;;;;;13.93;12.33;;;26.00;99.90;;;;;;4992428;28;20221;-68
2021/06/20 00:31:57;;;;;;;12.50;11.20;;;26.00;99.90;;;;;;4992588;28;20427;-68
2021/06/20 00:34:22;;;;;;;13.10;12.00;;;26.00;99.90;;;;;;4992774;28;20604;-68
2021/06/20 00:36:48;;;;;;;13.20;11.90;;;26.00;99.90;;;;;;4992364;28;20473;-68
2021/06/20 00:39:14;;;;;;;13.33;11.70;;;26.00;99.90;;;;;;4992363;28;20583;-68
2021/06/20 00:41:40;;;;;;;12.17;10.97;;;26.00;99.90;;;;;;4992489;28;20242;-68
2021/06/20 00:44:05;;;;;;;14.60;12.10;;;26.00;99.90;;;;;;4991149;28;20980;-68
2021/06/20 00:46:31;;;;;;;15.03;12.40;;;26.10;99.90;;;;;;4992463;28;20183;-68
2021/06/20 00:48:57;;;;;;;14.73;11.70;;;26.00;99.90;;;;;;4992071;28;20254;-68
2021/06/20 00:51:22;;;;;;;19.63;12.40;;;26.00;99.90;;;;;;4992278;28;20242;-68
2021/06/20 00:53:48;;;;;;;22.13;12.07;;;26.00;99.90;;;;;;4992237;28;20195;-68
2021/06/20 00:56:14;;;;;;;21.20;11.77;;;26.00;99.90;;;;;;4992257;28;20229;-68
2021/06/20 00:58:42;;;;;;;17.73;11.33;;;26.00;99.90;;;;;;4990810;28;20944;-68
2021/06/20 01:01:08;;;;;;;21.93;12.63;;;26.10;99.90;;;;;;4992313;28;20266;-68
2021/06/20 01:03:33;;;;;;;26.43;12.03;;;26.10;99.90;;;;;;4988596;28;20935;-68
2021/06/20 01:06:00;;;;;;;25.20;10.93;;;26.20;99.90;;;;;;4972759;28;20689;-69
2021/06/20 01:08:29;;;;;;;26.43;11.50;;;26.20;99.90;;;;;;4972453;28;20266;-68
2021/06/20 01:10:55;;;;;;;27.93;12.13;;;26.20;99.90;;;;;;4972755;28;20510;-68
2021/06/20 01:13:20;;;;;;;30.30;12.73;;;26.20;99.90;;;;;;4973416;28;20901;-68
2021/06/20 01:15:49;;;;;;;32.77;12.07;;;26.20;99.90;;;;;;4976787;28;20204;-68
2021/06/20 01:18:16;;;;;;;29.73;11.13;;;26.10;99.90;;;;;;4976377;28;20256;-68
2021/06/20 01:20:42;;;;;;;23.50;10.53;;;26.00;99.90;;;;;;4976121;28;20415;-68
2021/06/20 01:23:09;;;;;;;26.07;11.77;;;26.00;99.90;;;;;;4976311;28;20415;-68
2021/06/20 01:25:37;;;;;;;28.90;11.87;;;26.00;99.90;;;;;;4976144;28;20446;-68
2021/06/20 01:28:06;;;;;;;30.17;11.63;;;25.90;99.90;;;;;;4976208;28;21148;-68
2021/06/20 01:30:35;;;;;;;25.63;11.50;;;25.90;99.90;;;;;;4975939;28;20416;-68
2021/06/20 01:33:03;;;;;;;24.40;11.23;;;25.90;99.90;;;;;;4976192;28;20489;-68
2021/06/20 01:35:28;;;;;;;27.53;11.80;;;25.90;99.90;;;;;;4975901;28;20458;-68
2021/06/20 01:37:56;;;;;;;24.50;11.20;;;25.80;99.90;;;;;;4976006;28;20806;-68
2021/06/20 01:40:23;;;;;;;23.67;11.40;;;25.80;99.90;;;;;;4975728;28;20422;-68
2021/06/20 01:42:50;;;;;;;21.93;11.20;;;25.80;99.90;;;;;;4976136;28;20482;-68
2021/06/20 01:45:17;;;;;;;28.00;11.10;;;25.70;99.90;;;;;;4975944;28;20879;-68
2021/06/20 01:47:43;;;;;;;26.47;11.23;;;25.70;99.90;;;;;;4975860;28;20447;-68
2021/06/20 01:50:12;;;;;;;28.93;12.00;;;25.70;99.90;;;;;;4975439;28;20415;-68
2021/06/20 01:52:37;;;;;;;29.50;10.83;;;25.60;99.90;;;;;;4975754;28;20267;-68
2021/06/20 01:55:05;;;;;;;26.20;11.60;;;25.60;99.90;;;;;;4975874;28;20992;-68
2021/06/20 01:57:33;;;;;;;24.10;11.50;;;25.50;99.90;;;;;;4975640;28;20796;-68
2021/06/20 01:59:59;;;;;;;27.10;11.23;;;25.50;99.90;;;;;;4975433;28;20788;-68
2021/06/20 02:02:27;;;;;;;22.27;11.67;;;25.40;99.90;;;;;;4975665;28;20839;-68
2021/06/20 02:04:55;;;;;;;23.60;10.97;;;25.40;99.90;;;;;;4989642;28;20453;-68
2021/06/20 02:07:21;;;;;;;27.87;11.53;;;25.40;99.90;;;;;;4994908;28;20426;-68
2021/06/20 02:09:46;;;;;;;20.17;10.50;;;25.30;99.90;;;;;;4994640;28;20433;-68
2021/06/20 02:12:15;;;;;;;27.30;10.43;;;25.30;99.90;;;;;;4994855;28;20920;-68
2021/06/20 02:14:41;;;;;;;24.83;11.50;;;25.20;99.90;;;;;;4994819;28;20270;-68
2021/06/20 02:17:27;;;;;;;24.27;11.47;;;25.20;99.90;;;;;;4994654;28;20421;-68
2021/06/20 02:20:05;;;;;;;22.63;9.77;;;25.20;99.90;;;;;;4994467;28;20427;-68
2021/06/20 02:22:31;;;;;;;33.27;10.70;;;25.10;99.90;;;;;;4994817;28;20406;-68
2021/06/20 02:24:57;;;;;;;22.57;12.87;;;25.10;99.90;;;;;;4993326;28;20848;-68
2021/06/20 02:27:23;;;;;;;23.23;11.57;;;25.00;99.90;;;;;;4994398;28;20676;-68
2021/06/20 02:29:51;;;;;;;29.03;11.03;;;25.00;99.90;;;;;;4994348;28;20536;-68
2021/06/20 02:32:17;;;;;;;27.77;11.50;;;25.00;99.90;;;;;;4993256;28;20229;-68
2021/06/20 02:34:44;;;;;;;27.37;10.60;;;24.90;99.90;;;;;;4994395;28;20526;-68
2021/06/20 02:37:10;;;;;;;23.40;11.30;;;24.80;99.90;;;;;;4994433;28;20501;-68
2021/06/20 02:39:37;;;;;;;23.27;11.03;;;24.80;99.90;;;;;;4994119;28;20484;-68
2021/06/20 02:42:04;;;;;;;28.20;10.70;;;24.80;99.90;;;;;;4994219;28;20422;-68
2021/06/20 02:44:29;;;;;;;22.10;11.80;;;24.80;99.90;;;;;;4994326;28;20462;-68
2021/06/20 02:46:57;;;;;;;29.10;10.33;;;24.80;99.90;;;;;;4994268;28;20860;-68
2021/06/20 02:49:24;;;;;;;24.50;11.57;;;24.80;99.90;;;;;;4993914;28;20200;-68
2021/06/20 02:51:50;;;;;;;22.17;11.00;;;24.80;99.90;;;;;;4994108;28;20505;-68
2021/06/20 02:54:16;;;;;;;21.37;11.07;;;24.70;99.90;;;;;;4994012;28;20517;-68
2021/06/20 02:56:41;;;;;;;21.70;10.70;;;24.70;99.90;;;;;;4993868;28;20176;-68
2021/06/20 02:59:07;;;;;;;28.83;12.63;;;24.70;99.90;;;;;;4993957;28;20225;-68
2021/06/20 03:01:33;;;;;;;23.77;13.50;;;24.70;99.90;;;;;;4993955;28;20179;-68
2021/06/20 03:03:58;;;;;;;28.43;11.80;;;24.70;99.90;;;;;;4986877;28;20283;-68
2021/06/20 03:06:24;;;;;;;20.67;10.87;;;24.70;99.90;;;;;;4974391;28;20176;-68
2021/06/20 03:08:50;;;;;;;23.60;11.07;;;24.60;99.90;;;;;;4973975;28;20203;-68
2021/06/20 03:11:15;;;;;;;20.70;11.00;;;24.60;99.90;;;;;;4974190;28;20686;-68
2021/06/20 03:13:41;;;;;;;25.10;9.60;;;24.70;99.90;;;;;;4974285;28;20192;-68
2021/06/20 03:16:06;;;;;;;22.10;12.00;;;24.70;99.90;;;;;;4974255;28;20200;-68
2021/06/20 03:18:33;;;;;;;32.50;11.50;;;24.80;99.90;;;;;;4974071;28;20267;-68
2021/06/20 03:20:59;;;;;;;22.20;10.17;;;24.90;99.90;;;;;;4974130;28;20176;-68
2021/06/20 03:23:25;;;;;;;24.60;11.30;;;24.90;99.90;;;;;;4972703;28;20481;-68
2021/06/20 03:25:51;;;;;;;28.17;11.33;;;25.00;99.90;;;;;;4974496;28;20963;-68
2021/06/20 03:28:16;;;;;;;27.87;11.57;;;25.00;99.90;;;;;;4973821;28;20467;-68
2021/06/20 03:30:42;;;;;;;19.73;10.40;;;25.00;99.90;;;;;;4974062;28;20179;-68
2021/06/20 03:33:08;;;;;;;27.53;11.70;;;25.10;99.90;;;;;;4974250;28;20176;-68
2021/06/20 03:35:33;;;;;;;26.93;10.53;;;25.10;99.90;;;;;;4973774;28;20200;-68
2021/06/20 03:37:59;;;;;;;30.03;11.47;;;25.10;99.90;;;;;;4974042;28;20482;-68
2021/06/20 03:40:25;;;;;;;25.60;11.30;;;25.10;99.90;;;;;;4973533;28;20259;-68
2021/06/20 03:42:51;;;;;;;17.00;10.43;;;25.00;99.90;;;;;;4973995;28;20184;-68
2021/06/20 03:45:17;;;;;;;22.13;11.83;;;25.00;99.90;;;;;;4973701;28;20498;-68
2021/06/20 03:47:43;;;;;;;17.53;10.90;;;25.00;99.90;;;;;;4973656;28;20200;-68
2021/06/20 03:50:10;;;;;;;26.90;11.73;;;25.00;99.90;;;;;;4973381;28;20646;-68
2021/06/20 03:52:37;;;;;;;22.10;12.23;;;24.80;99.90;;;;;;4973623;28;20415;-68
2021/06/20 03:55:04;;;;;;;23.00;11.20;;;24.80;99.90;;;;;;4973491;28;20448;-68
2021/06/20 03:57:29;;;;;;;16.63;10.47;;;24.80;99.90;;;;;;4973491;28;20940;-68
2021/06/20 03:59:55;;;;;;;21.83;10.37;;;24.80;99.90;;;;;;4973502;28;20451;-68
2021/06/20 04:02:20;;;;;;;23.73;11.73;;;24.70;99.90;;;;;;4973510;28;20173;-68
2021/06/20 04:04:46;;;;;;;23.33;11.13;;;24.60;99.90;;;;;;4986621;28;20202;-68
2021/06/20 04:07:12;;;;;;;26.40;10.93;;;24.70;99.90;;;;;;4992722;28;20175;-67
2021/06/20 04:09:42;;;;;;;18.73;10.07;;;24.80;99.90;;;;;;4992527;28;20179;-68
2021/06/20 04:12:13;;;;;;;28.67;10.53;;;24.90;99.90;;;;;;4992775;28;20414;-68
2021/06/20 04:14:39;;;;;;;25.40;10.20;;;25.00;99.90;;;;;;4992771;28;20487;-68
2021/06/20 04:17:05;;;;;;;22.53;10.80;;;25.00;99.90;;;;;;4993119;28;20451;-68
2021/06/20 04:19:31;;;;;;;23.47;10.63;;;25.10;99.90;;;;;;4992486;28;20442;-68
2021/06/20 04:21:57;;;;;;;21.73;11.47;;;25.10;99.90;;;;;;4992488;28;20418;-68
2021/06/20 04:24:22;;;;;;;21.10;10.67;;;25.10;99.90;;;;;;4992514;28;20458;-68
2021/06/20 04:26:48;;;;;;;20.70;10.10;;;25.00;99.90;;;;;;4992729;28;20186;-68
2021/06/20 04:29:14;;;;;;;20.43;9.40;;;24.90;99.90;;;;;;4992579;28;20247;-68
2021/06/20 04:31:40;;;;;;;23.70;11.10;;;24.90;99.90;;;;;;4992975;28;20167;-68
2021/06/20 04:34:05;;;;;;;20.50;10.70;;;24.90;99.90;;;;;;4991206;28;20253;-68
2021/06/20 04:36:31;;;;;;;18.77;10.10;;;24.90;99.90;;;;;;4992351;28;20171;-68
2021/06/20 04:38:57;;;;;;;20.17;9.83;;;25.00;99.90;;;;;;4992230;28;20270;-68
2021/06/20 04:41:23;;;;;;;15.27;9.63;;;25.00;99.90;;;;;;4992527;28;20231;-68
2021/06/20 04:46:23;;;;;;;19.17;9.30;;;25.20;99.90;;;;;;4992845;28;20959;-68
2021/06/20 04:48:56;;;;;;;15.77;8.63;;;25.30;99.90;;;;;;4993615;28;20199;-68
2021/06/20 04:51:21;;;;;;;17.63;9.70;;;25.40;99.90;;;;;;4996324;28;20757;-68
2021/06/20 04:53:48;;;;;;;26.80;10.27;;;25.40;99.90;;;;;;4996264;28;20884;-68
2021/06/20 04:56:14;;;;;;;17.93;9.57;;;25.40;99.90;;;;;;4996333;28;20242;-68
2021/06/20 04:58:41;;;;;;;17.80;9.73;;;25.40;99.90;;;;;;4995973;28;20410;-68
2021/06/20 05:01:06;;;;;;;25.07;9.70;;;25.40;99.90;;;;;;4996330;28;20611;-68
2021/06/20 05:03:32;;;;;;;28.60;8.60;;;25.30;99.90;;;;;;4992709;28;20486;-68
2021/06/20 05:05:57;;;;;;;17.77;9.00;;;25.30;99.90;;;;;;4976510;28;20176;-68
2021/06/20 05:08:23;;;;;;;13.87;7.97;;;25.30;99.90;;;;;;4976335;28;20282;-68
2021/06/20 05:10:51;;;;;;;13.03;7.20;;;25.20;99.90;;;;;;4976625;28;20251;-68
2021/06/20 05:13:16;;;;;;;11.87;6.50;;;25.20;99.90;;;;;;4976407;28;20215;-68
2021/06/20 05:15:42;;;;;;;12.40;6.00;;;25.10;99.90;;;;;;4976556;28;20447;-68
2021/06/20 05:18:07;;;;;;;6.67;5.67;;;25.00;99.90;;;;;;4976302;28;20669;-68
2021/06/20 05:20:33;;;;;;;10.60;6.30;;;25.00;99.90;;;;;;4976062;28;20235;-68
2021/06/20 05:22:58;;;;;;;10.40;6.20;;;24.70;99.90;;;;;;4975150;28;20654;-68
2021/06/20 05:25:24;;;;;;;10.33;5.47;;;24.80;99.90;;;;;;4976206;28;20609;-68
2021/06/20 05:27:49;;;;;;;13.90;6.23;;;24.80;99.90;;;;;;4976182;28;20203;-68
2021/06/20 05:30:15;;;;;;;15.53;6.40;;;24.80;99.90;;;;;;4987412;28;20190;-68
2021/06/20 05:32:41;;;;;;;16.43;6.50;;;25.00;99.90;;;;;;4993305;28;20171;-69
2021/06/20 05:35:07;;;;;;;11.63;6.10;;;25.00;99.90;;;;;;4995369;28;20657;-68
2021/06/20 05:37:32;;;;;;;15.07;6.40;;;24.80;99.90;;;;;;5004514;28;20182;-68
2021/06/20 05:39:58;;;;;;;12.50;6.37;;;24.50;99.90;;;;;;4998240;28;20168;-68
2021/06/20 05:42:23;;;;;;;9.80;6.23;;;24.40;99.90;;;;;;4995460;28;20256;-68
2021/06/20 05:44:49;;;;;;;12.37;6.37;;;24.50;99.90;;;;;;4995461;28;20195;-68
2021/06/20 05:47:14;;;;;;;13.13;5.60;;;24.50;99.90;;;;;;4995399;28;20250;-67
2021/06/20 05:49:40;;;;;;;12.50;5.83;;;24.80;99.90;;;;;;4994826;28;20207;-68
2021/06/20 05:52:06;;;;;;;12.83;5.23;;;24.90;99.90;;;;;;4995524;28;20226;-68
2021/06/20 05:54:31;;;;;;;9.90;5.23;;;25.10;99.90;;;;;;4995191;28;20211;-68
2021/06/20 05:56:57;;;;;;;11.20;5.40;;;25.40;99.90;;;;;;4995202;28;20708;-68
2021/06/20 05:59:22;;;;;;;11.83;5.80;;;25.50;99.90;;;;;;4994627;28;20270;-68
2021/06/20 06:01:48;;;;;;;9.43;5.10;;;25.60;99.90;;;;;;5000055;28;20675;-68
2021/06/20 06:04:13;;;;;;;10.53;5.20;;;25.60;99.90;;;;;;5003084;28;20203;-68
2021/06/20 06:06:39;;;;;;;8.17;4.80;;;25.70;99.90;;;;;;4999336;28;20171;-68
2021/06/20 06:09:04;;;;;;;9.40;6.43;;;25.70;99.90;;;;;;5014182;28;20683;-68
2021/06/20 06:11:30;;;;;;;8.57;6.00;;;25.90;99.90;;;;;;5011937;28;20182;-68
2021/06/20 06:13:56;;;;;;;12.13;5.40;;;26.00;99.90;;;;;;5014401;28;20187;-68
2021/06/20 06:16:22;;;;;;;10.13;5.43;;;26.30;99.90;;;;;;5014457;28;20202;-68
2021/06/20 06:18:47;;;;;;;10.87;5.80;;;26.40;99.90;;;;;;5025678;28;20202;-68
2021/06/20 06:21:13;;;;;;;12.10;4.87;;;26.70;99.90;;;;;;5005337;28;20473;-68
2021/06/20 06:23:39;;;;;;;6.60;4.43;;;26.80;99.90;;;;;;4994559;28;20207;-68
2021/06/20 06:26:04;;;;;;;9.20;4.50;;;27.00;99.90;;;;;;4994685;28;20171;-68
2021/06/20 06:28:30;;;;;;;7.90;5.13;;;26.80;99.90;;;;;;4994220;28;20204;-68
2021/06/20 06:30:56;;;;;;;15.10;5.30;;;26.60;99.90;;;;;;4994616;28;20199;-68
2021/06/20 06:33:21;;;;;;;9.47;3.97;;;26.60;99.90;;;;;;4994294;28;20589;-68
2021/06/20 06:35:47;;;;;;;12.70;4.83;;;26.80;99.90;;;;;;4994442;28;20657;-68
2021/06/20 06:38:13;;;;;;;10.23;5.80;;;26.60;99.90;;;;;;4993992;28;20571;-68
2021/06/20 06:40:38;;;;;;;11.90;4.50;;;26.50;99.90;;;;;;4994366;28;20171;-68
2021/06/20 06:43:04;;;;;;;11.40;5.43;;;26.50;99.90;;;;;;4994782;28;20170;-64
2021/06/20 06:45:29;;;;;;;10.53;4.63;;;26.60;99.90;;;;;;4994225;28;20197;-64
2021/06/20 06:47:55;;;;;;;11.73;5.40;;;27.00;99.90;;;;;;4994107;28;20641;-65
2021/06/20 06:50:20;;;;;;;8.03;5.03;;;27.10;99.90;;;;;;4993955;28;20171;-65
2021/06/20 06:52:47;;;;;;;10.30;5.00;;;27.30;99.90;;;;;;4994139;28;20668;-64
2021/06/20 06:55:14;;;;;;;10.97;5.60;;;27.30;99.90;;;;;;5008664;28;20202;-65
2021/06/20 06:57:40;;;;;;;16.43;8.37;;;27.50;99.90;;;;;;5013657;28;20448;-65
2021/06/20 07:00:08;;;;;;;8.20;5.20;;;27.60;99.90;;;;;;5004350;28;20434;-64
2021/06/20 07:02:34;;;;;;;13.20;5.20;;;27.80;99.90;;;;;;4993861;28;20202;-66
2021/06/20 07:05:00;;;;;;;7.47;4.67;;;28.00;99.90;;;;;;4978505;28;20451;-64
2021/06/20 07:07:27;;;;;;;8.00;5.10;;;28.00;99.90;;;;;;4981690;28;20430;-64
2021/06/20 07:09:58;;;;;;;12.53;5.17;;;27.90;99.90;;;;;;4993638;28;20182;-64
2021/06/20 07:12:24;;;;;;;14.70;5.73;;;27.80;99.90;;;;;;4993213;28;20445;-66
2021/06/20 07:14:49;;;;;;;12.83;5.83;;;27.70;99.90;;;;;;4993553;28;20438;-65
2021/06/20 07:17:15;;;;;;;6.50;5.53;;;27.50;99.90;;;;;;4993666;28;20998;-66
2021/06/20 07:19:40;;;;;;;12.20;7.50;;;27.30;99.90;;;;;;4982255;28;20184;-65
2021/06/20 07:22:06;;;;;;;11.37;5.90;;;27.30;99.90;;;;;;4992914;28;20198;-64
2021/06/20 07:24:32;;;;;;;11.93;5.70;;;27.50;99.90;;;;;;4993366;28;20246;-65
2021/06/20 07:26:57;;;;;;;12.40;5.43;;;27.80;99.90;;;;;;4993677;28;20174;-65
2021/06/20 07:29:23;;;;;;;11.57;6.10;;;27.90;99.90;;;;;;4993022;28;20265;-65
2021/06/20 07:31:48;;;;;;;10.27;5.93;;;28.10;99.90;;;;;;4992958;28;20748;-68
2021/06/20 07:34:14;;;;;;;8.83;6.00;;;28.00;99.90;;;;;;4993312;28;20198;-65
2021/06/20 07:36:40;;;;;;;10.13;5.40;;;28.00;99.90;;;;;;4978338;28;20176;-65
2021/06/20 07:39:05;;;;;;;12.13;5.53;;;28.10;99.90;;;;;;4973609;28;20271;-65
2021/06/20 07:41:31;;;;;;;11.90;6.60;;;28.10;99.90;;;;;;4985723;28;20713;-66
2021/06/20 07:43:57;;;;;;;15.50;6.30;;;28.00;99.90;;;;;;4993161;28;20192;-65
2021/06/20 07:46:22;;;;;;;11.30;5.90;;;27.80;99.90;;;;;;4993115;28;20186;-65
2021/06/20 07:48:48;;;;;;;10.03;6.47;;;27.70;99.90;;;;;;4992862;28;20285;-65
2021/06/20 07:51:13;;;;;;;14.53;6.90;;;27.60;99.90;;;;;;4993127;28;20544;-65
2021/06/20 07:53:39;;;;;;;14.00;6.60;;;27.50;99.90;;;;;;4974832;28;20271;-65
2021/06/20 07:56:05;;;;;;;11.23;6.40;;;27.30;99.90;;;;;;4973623;28;20550;-65
2021/06/20 07:58:30;;;;;;;16.70;10.33;;;27.10;99.90;;;;;;4973229;28;20177;-65
2021/06/20 08:00:56;;;;;;;9.17;6.50;;;27.20;99.90;;;;;;4973445;28;20937;-65
2021/06/20 08:03:21;;;;;;;16.23;8.47;;;27.20;99.90;;;;;;4975393;28;20180;-65
2021/06/20 08:05:47;;;;;;;16.50;8.27;;;27.20;99.90;;;;;;4992998;28;20207;-65
2021/06/20 08:08:13;;;;;;;15.03;8.43;;;27.10;99.90;;;;;;4992174;28;20207;-65
2021/06/20 08:10:38;;;;;;;14.13;8.80;;;26.90;99.90;;;;;;4989255;28;20176;-65
2021/06/20 08:13:04;;;;;;;11.80;7.97;;;26.70;99.90;;;;;;5001171;28;20174;-65
2021/06/20 08:15:29;;;;;;;16.33;8.30;;;26.60;99.90;;;;;;4993928;28;20674;-65
2021/06/20 08:17:55;;;;;;;10.93;8.17;;;26.60;99.90;;;;;;4992574;28;20206;-65
2021/06/20 08:20:21;;;;;;;20.67;7.27;;;26.60;99.90;;;;;;4992060;28;20183;-65
2021/06/20 08:22:46;;;;;;;12.10;6.70;;;26.70;99.90;;;;;;4991839;28;20175;-65
2021/06/20 08:25:13;;;;;;;13.43;6.47;;;26.80;99.90;;;;;;4987072;28;20215;-65
2021/06/20 08:27:39;;;;;;;16.57;6.30;;;27.00;99.90;;;;;;4990765;28;20194;-65
2021/06/20 08:30:07;;;;;;;10.27;5.47;;;27.10;99.90;;;;;;4999001;28;20489;-65
2021/06/20 08:32:33;;;;;;;11.07;6.07;;;27.20;99.90;;;;;;4993506;28;20423;-65
2021/06/20 08:35:00;;;;;;;12.50;6.50;;;27.20;99.90;;;;;;5005697;28;20495;-64
2021/06/20 08:37:27;;;;;;;8.07;5.13;;;27.40;99.90;;;;;;5001279;28;20171;-65
2021/06/20 08:39:53;;;;;;;9.13;7.00;;;27.70;99.90;;;;;;4992223;28;20415;-65
2021/06/20 08:42:19;;;;;;;9.90;5.83;;;28.00;99.90;;;;;;4994732;28;20430;-65
2021/06/20 08:44:44;;;;;;;13.07;7.03;;;28.30;99.90;;;;;;5011784;28;20444;-65
2021/06/20 08:47:10;;;;;;;9.37;6.20;;;28.40;99.90;;;;;;5011943;28;20167;-65
2021/06/20 08:49:36;;;;;;;12.53;6.43;;;28.30;99.90;;;;;;4992501;28;20214;-65
2021/06/20 08:52:03;;;;;;;10.73;6.23;;;28.40;99.90;;;;;;5011768;28;20171;-65
2021/06/20 08:54:29;;;;;;;9.40;5.87;;;28.50;99.90;;;;;;5011876;28;20191;-65
2021/06/20 08:56:55;;;;;;;10.03;5.73;;;28.50;99.90;;;;;;5011225;28;20429;-65
2021/06/20 08:59:22;;;;;;;12.83;6.07;;;28.70;99.90;;;;;;5011482;28;20904;-65
2021/06/20 09:01:50;;;;;;;11.13;6.67;;;28.60;99.90;;;;;;5007256;28;20721;-65
2021/06/20 09:04:31;;;;;;;11.93;6.50;;;28.40;99.90;;;;;;4984173;28;20490;-64
2021/06/20 09:06:59;;;;;;;13.57;6.70;;;28.50;99.90;;;;;;5007267;28;20422;-64
2021/06/20 09:09:33;;;;;;;11.17;6.00;;;28.30;99.90;;;;;;5006712;28;20790;-65
2021/06/20 09:12:13;;;;;;;13.30;6.10;;;28.20;99.90;;;;;;4991948;28;20792;-64
2021/06/20 09:14:46;;;;;;;11.10;6.00;;;28.20;99.90;;;;;;4992062;28;20434;-65
2021/06/20 09:17:23;;;;;;;10.83;6.47;;;27.90;99.90;;;;;;4990883;28;20426;-65
2021/06/20 09:19:56;;;;;;;9.50;6.80;;;27.80;99.90;;;;;;4988303;28;20850;-65
2021/06/20 09:22:21;;;;;;;11.93;6.10;;;27.90;99.90;;;;;;5001302;28;20422;-64
2021/06/20 09:25:04;;;;;;;12.10;6.57;;;28.00;99.90;;;;;;4987915;28;20901;-65
2021/06/20 09:27:30;;;;;;;11.33;5.57;;;27.80;99.90;;;;;;4992220;28;20187;-64
2021/06/20 09:30:08;;;;;;;10.43;6.27;;;27.60;99.90;;;;;;4990679;28;20785;-64
2021/06/20 09:32:33;;;;;;;12.03;6.57;;;27.80;99.90;;;;;;4972943;28;20176;-64
2021/06/20 09:34:59;;;;;;;11.83;6.10;;;27.90;99.90;;;;;;4974108;28;20824;-64
2021/06/20 09:37:27;;;;;;;11.57;6.10;;;28.20;99.90;;;;;;5013615;23;20219;-65
2021/06/20 09:39:53;;;;;;;18.73;6.10;;;28.10;99.90;;;;;;5013094;28;20433;-65
2021/06/20 09:42:18;;;;;;;14.70;5.70;;;28.40;99.90;;;;;;5031255;28;20435;-65
2021/06/20 09:44:45;;;;;;;9.03;5.20;;;28.10;99.90;;;;;;5034756;28;20181;-65
2021/06/20 09:47:13;;;;;;;9.97;5.53;;;28.10;99.90;;;;;;5020361;28;20221;-65
2021/06/20 09:49:39;;;;;;;6.90;4.60;;;28.20;99.90;;;;;;5014394;28;20461;-65
2021/06/20 09:52:06;;;;;;;9.60;5.10;;;28.50;99.20;;;;;;5015000;28;20475;-65
2021/06/20 09:54:37;;;;;;;11.73;5.33;;;28.90;98.20;;;;;;5014828;28;20418;-65
2021/06/20 09:57:04;;;;;;;10.97;4.33;;;29.20;97.80;;;;;;5014852;28;20816;-65
2021/06/20 09:59:34;;;;;;;11.10;4.10;;;29.50;96.10;;;;;;5016715;28;20685;-65
2021/06/20 10:02:12;;;;;;;11.60;5.33;;;29.20;96.00;;;;;;5014765;28;20418;-65
2021/06/20 10:04:41;;;;;;;9.60;4.60;;;28.80;96.30;;;;;;5014763;28;20840;-65
2021/06/20 10:07:09;;;;;;;5.90;3.87;;;28.30;96.30;;;;;;5014531;28;20465;-65
2021/06/20 10:09:37;;;;;;;6.50;3.97;;;28.20;97.00;;;;;;5014302;28;20511;-65
2021/06/20 10:12:05;;;;;;;6.17;3.80;;;28.00;96.00;;;;;;5014468;28;20568;-65
2021/06/20 10:14:32;;;;;;;8.40;4.40;;;28.00;96.50;;;;;;5014518;28;20414;-65
2021/06/20 10:17:10;;;;;;;8.00;5.90;;;28.30;95.60;;;;;;5014444;28;20516;-65
2021/06/20 10:19:41;;;;;;;9.33;4.03;;;28.50;94.60;;;;;;5014223;28;20417;-65
2021/06/20 10:22:09;;;;;;;5.50;3.53;;;28.70;95.00;;;;;;5014347;28;20430;-65
2021/06/20 10:24:44;;;;;;;6.40;3.93;;;28.40;95.00;;;;;;5013581;28;20433;-65
2021/06/20 10:27:10;;;;;;;7.50;3.50;;;28.60;94.60;;;;;;5012668;28;20450;-63
2021/06/20 10:29:37;;;;;;;10.33;4.60;;;28.60;94.70;;;;;;5005589;28;20798;-64
2021/06/20 10:32:20;;;;;;;7.10;4.83;;;28.40;94.70;;;;;;5010502;28;20439;-64
2021/06/20 10:34:59;;;;;;;8.27;4.03;;;28.10;95.10;;;;;;5033929;28;20424;-65
2021/06/20 10:37:27;;;;;;;6.33;4.67;;;28.10;95.10;;;;;;5033600;28;20455;-63
2021/06/20 10:39:55;;;;;;;10.97;4.10;;;28.00;95.40;;;;;;5026603;28;20422;-64
2021/06/20 10:42:38;;;;;;;6.20;3.97;;;28.00;95.80;;;;;;5005418;28;20432;-64
2021/06/20 10:45:07;;;;;;;10.20;3.93;;;28.30;95.80;;;;;;5003366;28;20426;-64
2021/06/20 10:47:35;;;;;;;6.03;3.57;;;28.70;94.00;;;;;;5012695;28;20540;-64
2021/06/20 10:50:08;;;;;;;4.90;3.60;;;28.90;94.10;;;;;;5013669;28;20422;-63
2021/06/20 10:52:34;;;;;;;7.20;3.90;;;29.40;94.00;;;;;;5012395;28;20425;-64
2021/06/20 10:55:16;;;;;;;5.83;3.60;;;29.70;93.10;;;;;;5012147;28;20426;-63
2021/06/20 10:57:53;;;;;;;6.13;3.53;;;30.40;92.60;;;;;;5013553;28;20540;-65
2021/06/20 11:00:31;;;;;;;7.03;3.97;;;30.20;92.00;;;;;;5013358;28;20471;-64
2021/06/20 11:03:08;;;;;;;7.77;3.70;;;29.80;92.90;;;;;;5013526;28;20479;-63
2021/06/20 11:05:48;;;;;;;6.97;3.40;;;30.30;92.70;;;;;;5013719;28;21038;-64
2021/06/20 11:08:49;;;;;;;7.97;4.60;;;30.10;92.90;;;;;;5013167;28;20511;-63
2021/06/20 11:11:18;;;;;;;10.40;4.87;;;30.20;93.00;;;;;;5013224;28;20408;-64
2021/06/20 11:13:59;;;;;;;8.90;3.90;;;30.30;92.90;;;;;;5014537;28;20422;-64
2021/06/20 11:16:29;;;;;;;9.60;4.57;;;30.50;92.40;;;;;;4993775;28;20457;-68
2021/06/20 11:19:13;;;;;;;9.37;4.10;;;30.60;92.80;;;;;;5006520;28;20421;-64
2021/06/20 11:21:41;;;;;;;7.80;3.40;;;31.50;92.20;;;;;;5024150;28;20429;-64
2021/06/20 11:24:09;;;;;;;8.00;4.20;;;32.30;90.00;;;;;;5032864;28;20482;-65
2021/06/20 11:26:35;;;;;;;9.73;4.70;;;33.40;88.40;;;;;;5032694;28;20424;-65
2021/06/20 11:29:05;;;;;;;11.80;4.97;;;34.40;83.20;;;;;;5018250;28;20900;-65
2021/06/20 11:31:31;;;;;;;5.60;3.73;;;34.40;81.90;;;;;;5010200;28;20504;-65
2021/06/20 11:33:58;;;;;;;7.47;3.90;;;33.90;80.40;;;;;;5014315;28;20837;-65
2021/06/20 11:36:27;;;;;;;8.67;4.27;;;34.00;79.10;;;;;;5032709;28;20216;-65
2021/06/20 11:38:52;;;;;;;5.63;5.13;;;35.40;75.50;;;;;;5013289;28;20434;-65
2021/06/20 11:41:23;;;;;;;13.23;4.87;;;36.00;74.10;;;;;;5012888;28;20421;-65
2021/06/20 11:43:52;;;;;;;9.90;4.60;;;36.80;67.30;;;;;;5014062;28;20278;-65
2021/06/20 11:46:19;;;;;;;10.90;4.70;;;37.00;64.80;;;;;;5032603;28;20547;-65
2021/06/20 11:48:52;;;;;;;11.37;5.30;;;38.00;59.40;;;;;;5032144;28;20473;-65
2021/06/20 11:51:31;;;;;;;15.80;5.03;;;36.50;58.70;;;;;;5032496;28;20452;-65
2021/06/20 11:54:13;;;;;;;15.40;6.20;;;35.80;60.90;;;;;;5032555;28;20424;-65
2021/06/20 11:56:40;;;;;;;17.60;5.70;;;37.10;57.70;;;;;;5032260;28;20420;-65
2021/06/20 11:59:07;;;;;;;8.93;4.57;;;38.60;55.30;;;;;;5031901;28;20429;-65
2021/06/20 12:01:43;;;;;;;11.23;4.90;;;37.60;55.40;;;;;;5032337;28;20941;-65
2021/06/20 12:04:10;;;;;;;14.10;5.40;;;36.70;56.30;;;;;;5032267;28;20421;-65
2021/06/20 12:06:37;;;;;;;12.17;6.20;;;37.00;56.30;;;;;;5032098;28;20937;-65
2021/06/20 12:09:03;;;;;;;8.30;4.20;;;38.00;55.90;;;;;;5031934;28;20582;-65
2021/06/20 12:11:33;;;;;;;10.37;4.67;;;37.70;55.20;;;;;;5032126;28;20405;-65
2021/06/20 12:13:58;;;;;;;11.30;5.30;;;37.50;56.50;;;;;;5032172;28;20503;-65
2021/06/20 12:16:24;;;;;;;9.20;4.43;;;38.60;55.60;;;;;;5032072;28;20511;-65
2021/06/20 12:18:50;;;;;;;11.50;5.43;;;39.20;55.90;;;;;;5031840;28;20185;-65
2021/06/20 12:21:23;;;;;;;9.53;5.13;;;38.80;55.60;;;;;;5019689;28;20185;-66
2021/06/20 12:23:54;;;;;;;8.60;4.57;;;37.30;57.30;;;;;;5012426;28;20183;-65
2021/06/20 12:26:31;;;;;;;10.00;5.67;;;35.60;58.40;;;;;;5012274;28;20425;-65
2021/06/20 12:28:59;;;;;;;8.30;5.20;;;36.50;58.30;;;;;;5011915;28;20461;-65
2021/06/20 12:31:26;;;;;;;13.97;5.80;;;38.10;57.00;;;;;;5010948;28;20422;-65
2021/06/20 12:34:04;;;;;;;9.70;5.00;;;39.60;54.90;;;;;;5012067;28;20430;-65
2021/06/20 12:36:30;;;;;;;10.53;5.37;;;39.10;53.90;;;;;;5011942;28;20452;-65
2021/06/20 12:38:58;;;;;;;11.70;5.67;;;40.00;52.90;;;;;;5011892;28;20426;-65